Time;durP1;ratioP1;P1;durP2;ratioP2;P2;SDS_P1;SDS_P2;PMS_P1;PMS_P2;Temp;Humidity;BMP_temperature;BMP_pressure;BME280_temperature;BME280_humidity;BME280_pressure;Samples;Min_cycle;Max_cycle;Signal;HPM_P1;HPM_P2
2022/12/22 03:26:21;;;;;;;;;;;;;;;7.90;100.00;100240.00;5018972;28;20060;-75
2022/12/22 03:28:46;;;;;;;;;;;;;;;7.89;100.00;100239.13;5038221;28;20216;-75
2022/12/22 03:31:11;;;;;;;;;;;;;;;7.90;100.00;100240.00;5038696;28;19939;-75
2022/12/22 03:33:37;;;;;;;;;;;;;;;7.90;100.00;100226.97;5020051;28;19913;-75
2022/12/22 03:36:03;;;;;;;;;;;;;;;7.89;100.00;100236.50;5019056;28;19917;-75
2022/12/22 03:38:28;;;;;;;;;;;;;;;7.91;100.00;100236.47;5030996;28;20180;-75
2022/12/22 03:40:54;;;;;;;;;;;;;;;7.90;100.00;100233.00;5030738;28;19913;-75
2022/12/22 03:51:32;;;;;;;;;;;;;;;7.90;100.00;100240.84;5038500;28;19948;-75
2022/12/22 03:53:57;;;;;;;;;;;;;;;7.89;100.00;100241.72;5035217;28;19925;-75
2022/12/22 03:56:22;;;;;;;;;;;;;;;7.90;100.00;100247.81;5018425;28;20205;-75
2022/12/22 03:58:47;;;;;;;;;;;;;;;7.90;100.00;100243.44;5032172;28;19988;-75
2022/12/22 04:01:12;;;;;;;;;;;;;;;7.89;100.00;100246.94;5019613;28;20227;-75
2022/12/22 04:03:38;;;;;;;;;;;;;;;7.90;100.00;100255.63;5018279;28;20227;-75
2022/12/22 04:06:03;;;;;;;;;;;;;;;7.88;100.00;100253.91;5034016;28;19917;-75
2022/12/22 04:08:28;;;;;;;;;;;;;;;7.89;100.00;100259.97;5037755;28;19970;-75
2022/12/22 04:13:38;;;;;;;;;;;;;;;7.88;100.00;100259.13;5017986;28;19935;-75
2022/12/22 04:16:03;;;;;;;;;;;;;;;7.88;100.00;100248.72;5030232;28;19992;-75
2022/12/22 04:18:28;;;;;;;;;;;;;;;7.89;100.00;100254.75;5037754;28;19925;-75
2022/12/22 04:20:54;;;;;;;;;;;;;;;7.88;100.00;100253.91;5027657;28;19921;-75
2022/12/22 04:23:19;;;;;;;;;;;;;;;7.89;100.00;100254.75;5016719;28;20011;-75
2022/12/22 04:25:44;;;;;;;;;;;;;;;7.87;100.00;100252.22;5023499;28;20200;-75
2022/12/22 04:28:10;;;;;;;;;;;;;;;7.86;100.00;100253.13;5032753;28;19936;-75
2022/12/22 04:30:35;;;;;;;;;;;;;;;7.87;100.00;100259.19;5028324;28;19913;-75
2022/12/22 04:33:00;;;;;;;;;;;;;;;7.87;100.00;100261.81;5018267;28;19917;-75
2022/12/22 04:35:25;;;;;;;;;;;;;;;7.87;100.00;100261.81;5029018;28;20023;-75
2022/12/22 04:37:50;;;;;;;;;;;;;;;7.86;100.00;100265.34;5017758;28;19932;-75
2022/12/22 04:40:16;;;;;;;;;;;;;;;7.86;100.00;100263.56;5017726;28;20423;-75
2022/12/22 04:42:41;;;;;;;;;;;;;;;7.87;100.00;100265.25;5036485;28;20112;-75
2022/12/22 04:45:06;;;;;;;;;;;;;;;7.88;100.00;100274.78;5035110;28;20009;-75
2022/12/22 04:47:32;;;;;;;;;;;;;;;7.87;100.00;100273.06;5034341;28;20217;-75
2022/12/22 04:49:57;;;;;;;;;;;;;;;7.87;100.00;100280.06;5036595;28;19913;-75
2022/12/22 04:52:22;;;;;;;;;;;;;;;7.87;100.00;100275.69;5029952;28;19936;-75
2022/12/22 04:54:48;;;;;;;;;;;;;;;7.87;100.00;100272.22;5037170;28;19921;-75
2022/12/22 04:57:13;;;;;;;;;;;;;;;7.87;100.00;100282.66;5036107;28;19917;-75
2022/12/22 04:59:38;;;;;;;;;;;;;;;7.86;100.00;100288.78;5036869;28;19932;-75
2022/12/22 05:02:03;;;;;;;;;;;;;;;7.85;100.00;100285.31;5028006;28;19992;-75
2022/12/22 05:04:29;;;;;;;;;;;;;;;7.86;100.00;100292.25;5017575;28;19929;-75
2022/12/22 05:06:54;;;;;;;;;;;;;;;7.85;100.00;100289.69;5023728;28;19983;-75
2022/12/22 05:09:19;;;;;;;;;;;;;;;7.84;100.00;100295.78;5037197;28;19984;-75
2022/12/22 05:11:45;;;;;;;;;;;;;;;7.83;100.00;100297.56;5032621;28;20157;-75
2022/12/22 05:14:10;;;;;;;;;;;;;;;7.83;100.00;100294.13;5017641;28;20276;-75
2022/12/22 05:16:35;;;;;;;;;;;;;;;7.81;100.00;100304.59;5017982;28;19972;-75
2022/12/22 05:19:00;;;;;;;;;;;;;;;7.80;100.00;100309.88;5037196;28;19932;-75
2022/12/22 05:21:26;;;;;;;;;;;;;;;7.77;100.00;100313.44;5036702;28;19923;-75
2022/12/22 05:23:51;;;;;;;;;;;;;;;7.77;100.00;100315.22;5017903;28;20598;-74
2022/12/22 05:26:17;;;;;;;;;;;;;;;7.76;100.00;100318.72;5016151;28;19991;-75
2022/12/22 05:28:43;;;;;;;;;;;;;;;7.74;100.00;100317.94;5033009;28;19928;-74
2022/12/22 05:31:10;;;;;;;;;;;;;;;7.73;100.00;100331.84;5057308;28;19923;-75
2022/12/22 05:33:35;;;;;;;;;;;;;;;7.72;100.00;100333.63;5041607;28;19944;-75
2022/12/22 05:36:00;;;;;;;;;;;;;;;7.72;100.00;100327.56;5036869;28;20108;-75
2022/12/22 05:38:26;;;;;;;;;;;;;;;7.72;100.00;100319.75;5025932;28;20108;-75
2022/12/22 05:40:52;;;;;;;;;;;;;;;7.72;100.00;100317.13;5016918;28;19925;-75
2022/12/22 05:43:17;;;;;;;;;;;;;;;7.71;100.00;100321.47;5024872;28;19927;-75
2022/12/22 05:45:45;;;;;;;;;;;;;;;7.72;100.00;100319.75;5036882;28;19929;-75
2022/12/22 05:48:11;;;;;;;;;;;;;;;7.73;100.00;100313.59;5030999;28;19921;-75
2022/12/22 05:50:36;;;;;;;;;;;;;;;7.73;100.00;100314.47;5016705;28;20164;-75
2022/12/22 05:53:02;;;;;;;;;;;;;;;7.73;100.00;100311.88;5020232;28;20419;-75
2022/12/22 05:55:27;;;;;;;;;;;;;;;7.72;100.00;100315.38;5036325;28;20323;-74
2022/12/22 05:57:53;;;;;;;;;;;;;;;7.71;100.00;100318.88;5036186;28;20160;-75
2022/12/22 06:00:18;;;;;;;;;;;;;;;7.69;100.00;100321.56;5033126;28;19925;-75
2022/12/22 06:02:44;;;;;;;;;;;;;;;7.68;100.00;100322.44;5036565;28;20267;-75
2022/12/22 06:05:10;;;;;;;;;;;;;;;7.68;100.00;100334.66;5037463;28;19929;-75
2022/12/22 06:07:35;;;;;;;;;;;;;;;7.65;100.00;100343.41;5040100;28;19928;-75
2022/12/22 06:10:01;;;;;;;;;;;;;;;7.63;100.00;100342.63;5025143;28;20190;-75
2022/12/22 06:12:26;;;;;;;;;;;;;;;7.64;100.00;100346.94;5020683;28;19949;-75
2022/12/22 06:14:51;;;;;;;;;;;;;;;7.64;100.00;100351.28;5032443;28;19975;-75
2022/12/22 06:17:16;;;;;;;;;;;;;;;7.65;100.00;100366.03;5040362;28;19979;-74
2022/12/22 06:19:42;;;;;;;;;;;;;;;7.65;100.00;100366.88;5038513;28;19991;-75
2022/12/22 06:22:07;;;;;;;;;;;;;;;7.65;100.00;100369.47;5039977;28;19916;-75
2022/12/22 06:24:32;;;;;;;;;;;;;;;7.65;100.00;100373.84;5031435;28;19917;-74
2022/12/22 06:26:57;;;;;;;;;;;;;;;7.65;100.00;100377.28;5027704;28;19925;-74
2022/12/22 06:29:23;;;;;;;;;;;;;;;7.66;100.00;100380.78;5034347;28;19988;-75
2022/12/22 06:31:48;;;;;;;;;;;;;;;7.65;100.00;100382.50;5019873;28;19925;-74
2022/12/22 06:34:16;;;;;;;;;;;;;;;7.65;100.00;100385.09;5022735;28;20334;-75
2022/12/22 06:36:42;;;;;;;;;;;;;;;7.63;100.00;100386.91;5039600;28;19929;-75
2022/12/22 06:39:07;;;;;;;;;;;;;;;7.63;100.00;100388.69;5039398;28;20251;-75
2022/12/22 06:44:16;;;;;;;;;;;;;;;7.62;100.00;100394.78;5019965;28;20236;-75
2022/12/22 06:46:41;;;;;;;;;;;;;;;7.62;100.00;100402.59;5027638;28;19988;-74
2022/12/22 06:49:07;;;;;;;;;;;;;;;7.61;100.00;100399.16;5024131;28;19936;-75
2022/12/22 06:51:32;;;;;;;;;;;;;;;7.61;100.00;100408.75;5037930;28;19933;-74
2022/12/22 06:53:57;;;;;;;;;;;;;;;7.60;100.00;100404.44;5039539;28;19913;-75
2022/12/22 06:56:22;;;;;;;;;;;;;;;7.58;100.00;100401.88;5024212;28;19997;-75
2022/12/22 06:58:48;;;;;;;;;;;;;;;7.57;100.00;100394.97;5033497;28;19917;-75
2022/12/22 07:01:13;;;;;;;;;;;;;;;7.56;100.00;100397.63;5027250;28;19929;-75
2022/12/22 07:03:38;;;;;;;;;;;;;;;7.53;100.00;100411.63;5018978;28;20021;-75
2022/12/22 07:06:03;;;;;;;;;;;;;;;7.50;100.00;100411.72;5024953;28;19925;-75
2022/12/22 07:08:29;;;;;;;;;;;;;;;7.47;100.00;100420.47;5032910;28;19917;-75
2022/12/22 07:10:57;;;;;;;;;;;;;;;7.48;100.00;100421.34;5024896;28;19925;-75
2022/12/22 07:13:23;;;;;;;;;;;;;;;7.47;100.00;100419.63;5033987;28;20097;-75
2022/12/22 07:15:48;;;;;;;;;;;;;;;7.46;100.00;100425.78;5036713;28;20344;-75
2022/12/22 07:18:14;;;;;;;;;;;;;;;7.44;100.00;100431.03;5037422;28;20230;-75
2022/12/22 07:20:39;;;;;;;;;;;;;;;7.44;100.00;100437.97;5035367;28;19921;-75
2022/12/22 07:23:04;;;;;;;;;;;;;;;7.42;100.00;100439.78;5018360;28;19921;-75
2022/12/22 07:25:30;;;;;;;;;;;;;;;7.40;100.00;100433.78;5027855;28;19921;-75
2022/12/22 07:27:55;;;;;;;;;;;;;;;7.38;100.00;100438.19;5037925;28;19921;-75
2022/12/22 07:30:20;;;;;;;;;;;;;;;7.36;100.00;100438.25;5027439;28;20120;-75
2022/12/22 07:32:45;;;;;;;;;;;;;;;7.36;100.00;100442.59;5027631;28;19983;-75
2022/12/22 07:35:11;;;;;;;;;;;;;;;7.34;100.00;100452.22;5037658;28;19913;-75
2022/12/22 07:37:36;;;;;;;;;;;;;;;7.32;100.00;100456.66;5024378;28;19959;-75
2022/12/22 07:40:01;;;;;;;;;;;;;;;7.30;100.00;100467.09;5019009;28;19921;-75
2022/12/22 07:42:43;;;;;;;;;;;;;;;7.28;100.00;100468.91;5016543;28;20295;-75
2022/12/22 07:45:09;;;;;;;;;;;;;;;7.25;100.00;100472.47;5016293;28;20188;-75
2022/12/22 07:47:35;;;;;;;;;;;;;;;7.25;100.00;100476.81;5035087;28;19921;-74
2022/12/22 07:52:44;;;;;;;;;;;;;;;7.22;100.00;100469.09;5026281;28;19936;-74
2022/12/22 07:55:09;;;;;;;;;;;;;;;7.21;100.00;100477.84;5025878;28;19925;-75
2022/12/22 07:57:34;;;;;;;;;;;;;;;7.19;100.00;100471.81;5023037;28;19925;-75
2022/12/22 08:00:00;;;;;;;;;;;;;;;7.17;100.00;100482.28;5020746;28;19972;-75
2022/12/22 08:02:25;;;;;;;;;;;;;;;7.16;100.00;100482.34;5024563;28;19921;-75
2022/12/22 08:04:50;;;;;;;;;;;;;;;7.15;100.00;100481.50;5022000;28;20136;-75
2022/12/22 08:07:16;;;;;;;;;;;;;;;7.11;100.00;100477.25;5029289;28;20108;-75
2022/12/22 08:09:41;;;;;;;;;;;;;;;7.10;100.00;100489.44;5024850;28;20038;-75
2022/12/22 08:12:06;;;;;;;;;;;;;;;7.08;100.00;100491.25;5025778;28;19925;-75
2022/12/22 08:14:32;;;;;;;;;;;;;;;7.06;100.00;100507.81;5034919;28;19980;-75
2022/12/22 08:16:57;;;;;;;;;;;;;;;7.05;100.00;100519.13;5035231;28;19932;-75
2022/12/22 08:19:22;;;;;;;;;;;;;;;7.04;100.00;100533.03;5023843;28;20414;-75
2022/12/22 08:21:48;;;;;;;;;;;;;;;7.00;100.00;100528.81;5025722;28;19921;-75
2022/12/22 08:24:13;;;;;;;;;;;;;;;6.96;100.00;100522.03;5026216;28;19991;-75
2022/12/22 08:26:42;;;;;;;;;;;;;;;6.94;100.00;100529.88;5035728;28;19927;-74
2022/12/22 08:29:11;;;;;;;;;;;;;;;6.93;100.00;100528.19;5035169;28;20043;-75
2022/12/22 08:31:37;;;;;;;;;;;;;;;6.92;100.00;100537.72;5034599;28;19925;-75
2022/12/22 08:34:05;;;;;;;;;;;;;;;6.91;100.00;100542.97;5035102;28;19924;-75
2022/12/22 08:36:32;;;;;;;;;;;;;;;6.90;100.00;100544.72;5035772;28;19917;-75
2022/12/22 08:38:59;;;;;;;;;;;;;;;6.89;100.00;100536.97;5035354;28;19924;-75
2022/12/22 08:44:08;;;;;;;;;;;;;;;6.89;100.00;100542.16;5031395;28;20091;-75
2022/12/22 08:46:33;;;;;;;;;;;;;;;6.89;100.00;100547.38;5035464;28;19921;-75
2022/12/22 08:48:58;;;;;;;;;;;;;;;6.90;100.00;100551.69;5031405;28;19921;-74
2022/12/22 08:51:23;;;;;;;;;;;;;;;6.90;100.00;100551.69;5032678;28;19931;-75
2022/12/22 08:53:48;;;;;;;;;;;;;;;6.89;100.00;100552.59;5030897;28;19913;-75
2022/12/22 08:56:14;;;;;;;;;;;;;;;6.89;100.00;100556.06;5043017;28;19943;-75
2022/12/22 08:58:39;;;;;;;;;;;;;;;6.89;100.00;100550.84;5028930;28;20148;-75
2022/12/22 09:01:04;;;;;;;;;;;;;;;6.90;100.00;100562.09;5023942;28;19923;-75
2022/12/22 09:03:30;;;;;;;;;;;;;;;6.89;100.00;100555.19;5030351;28;19925;-75
2022/12/22 09:06:01;;;;;;;;;;;;;;;6.89;100.00;100558.66;5036067;28;20170;-75
2022/12/22 09:08:27;;;;;;;;;;;;;;;6.89;100.00;100569.06;5036047;28;20120;-75
2022/12/22 09:10:52;;;;;;;;;;;;;;;6.89;100.00;100570.81;5034824;28;19984;-75
2022/12/22 09:13:17;;;;;;;;;;;;;;;6.89;100.00;100582.09;5025234;28;20527;-75
2022/12/22 09:15:42;;;;;;;;;;;;;;;6.88;100.00;100571.72;5037078;28;20153;-75
2022/12/22 09:18:07;;;;;;;;;;;;;;;6.88;100.00;100572.56;5042855;28;19925;-75
2022/12/22 09:20:33;;;;;;;;;;;;;;;6.88;100.00;100569.13;5037695;28;20231;-74
2022/12/22 09:22:58;;;;;;;;;;;;;;;6.88;100.00;100566.50;5036647;28;20208;-75
2022/12/22 09:25:24;;;;;;;;;;;;;;;6.88;100.00;100571.72;5032998;28;20162;-75
2022/12/22 09:27:49;;;;;;;;;;;;;;;6.88;100.00;100576.94;5023605;28;19929;-75
2022/12/22 09:30:14;;;;;;;;;;;;;;;6.87;100.00;100576.06;5032813;28;19999;-75
2022/12/22 09:32:39;;;;;;;;;;;;;;;6.87;100.00;100586.47;5023409;28;19930;-75
2022/12/22 09:35:05;;;;;;;;;;;;;;;6.87;100.00;100599.47;5028814;28;19971;-75
2022/12/22 09:37:30;;;;;;;;;;;;;;;6.88;100.00;100592.53;5033831;28;19925;-75
2022/12/22 09:39:55;;;;;;;;;;;;;;;6.88;100.00;100600.34;5035601;28;19964;-75
2022/12/22 09:42:22;;;;;;;;;;;;;;;6.87;100.00;100599.47;5027087;28;19936;-74
2022/12/22 09:44:50;;;;;;;;;;;;;;;6.88;100.00;100593.38;5034466;28;19921;-75
2022/12/22 09:47:26;;;;;;;;;;;;;;;6.88;100.00;100601.19;5029381;28;19945;-74
2022/12/22 09:49:54;;;;;;;;;;;;;;;6.89;100.00;100609.84;5033349;28;19928;-75
2022/12/22 09:52:28;;;;;;;;;;;;;;;6.90;100.00;100606.38;5029744;28;19917;-75
2022/12/22 09:54:54;;;;;;;;;;;;;;;6.90;100.00;100601.16;5023375;28;20007;-75
2022/12/22 09:57:19;;;;;;;;;;;;;;;6.91;100.00;100608.06;5031702;28;19966;-74
2022/12/22 09:59:45;;;;;;;;;;;;;;;6.91;100.00;100613.25;5029966;28;19917;-74
2022/12/22 10:02:19;;;;;;;;;;;;;;;6.93;100.00;100616.69;5031050;28;19987;-75
2022/12/22 10:04:59;;;;;;;;;;;;;;;6.92;100.00;100613.22;5027475;28;19925;-75
2022/12/22 10:07:35;;;;;;;;;;;;;;;6.94;100.00;100607.13;5030388;28;20107;-75
2022/12/22 10:10:15;;;;;;;;;;;;;;;6.96;100.00;100615.75;5028280;28;20090;-75
2022/12/22 10:12:41;;;;;;;;;;;;;;;6.98;100.00;100616.56;5030725;28;19948;-75
2022/12/22 10:15:09;;;;;;;;;;;;;;;6.99;100.00;100608.69;5034401;28;19934;-75
2022/12/22 10:17:34;;;;;;;;;;;;;;;7.02;100.00;100608.63;5034878;28;19925;-75
2022/12/22 10:20:20;;;;;;;;;;;;;;;7.03;100.00;100606.84;5033462;28;20321;-75
2022/12/22 10:22:48;;;;;;;;;;;;;;;7.05;100.00;100605.91;5024422;28;20230;-75
2022/12/22 10:25:25;;;;;;;;;;;;;;;7.08;100.00;100611.03;5033235;28;19917;-74
2022/12/22 10:27:51;;;;;;;;;;;;;;;7.11;100.00;100615.28;5026267;28;19921;-75
2022/12/22 10:30:24;;;;;;;;;;;;;;;7.12;100.00;100611.78;5037291;28;20128;-75
2022/12/22 10:33:02;;;;;;;;;;;;;;;7.16;100.00;100613.41;5031674;28;19923;-75
2022/12/22 10:35:34;;;;;;;;;;;;;;;7.18;100.00;100608.16;5035993;28;19913;-75
2022/12/22 10:38:11;;;;;;;;;;;;;;;7.20;100.00;100619.38;5035960;28;19921;-75
2022/12/22 10:40:42;;;;;;;;;;;;;;;7.23;100.00;100630.53;5033615;28;19917;-75
2022/12/22 10:43:07;;;;;;;;;;;;;;;7.25;100.00;100639.16;5033997;28;19921;-75
2022/12/22 10:45:32;;;;;;;;;;;;;;;7.27;100.00;100633.91;5032840;28;19928;-75
2022/12/22 10:47:58;;;;;;;;;;;;;;;7.28;100.00;100630.41;5032399;28;19987;-75
2022/12/22 10:50:23;;;;;;;;;;;;;;;7.29;100.00;100632.09;5035220;28;19925;-75
2022/12/22 10:52:52;;;;;;;;;;;;;;;7.30;100.00;100644.25;5036237;28;20181;-75
2022/12/22 10:55:20;;;;;;;;;;;;;;;7.29;100.00;100650.34;5035724;28;19940;-75
2022/12/22 10:57:45;;;;;;;;;;;;;;;7.28;100.00;100659.06;5031128;28;19921;-75
2022/12/22 11:00:27;;;;;;;;;;;;;;;7.28;100.00;100659.06;5033781;28;19921;-75
2022/12/22 11:02:54;;;;;;;;;;;;;;;7.27;100.00;100662.56;5030406;28;19924;-75
2022/12/22 11:05:19;;;;;;;;;;;;;;;7.26;100.00;100664.31;5024053;28;20223;-75
2022/12/22 11:07:48;;;;;;;;;;;;;;;7.27;100.00;100666.00;5032834;28;19995;-75
2022/12/22 11:10:13;;;;;;;;;;;;;;;7.27;100.00;100665.16;5032451;28;20017;-75
2022/12/22 11:12:41;;;;;;;;;;;;;;;7.28;100.00;100672.09;5031885;28;19951;-75
2022/12/22 11:15:25;;;;;;;;;;;;;;;7.28;100.00;100685.13;5029526;28;21181;-75
2022/12/22 11:17:53;;;;;;;;;;;;;;;7.24;100.00;100681.75;5031093;28;20211;-75
2022/12/22 11:20:31;;;;;;;;;;;;;;;7.23;100.00;100681.78;5028547;28;20134;-75
2022/12/22 11:23:19;;;;;;;;;;;;;;;7.21;100.00;100688.81;5028700;28;19948;-75
2022/12/22 11:26:03;;;;;;;;;;;;;;;7.20;100.00;100687.09;5030487;28;20004;-75
2022/12/22 11:28:46;;;;;;;;;;;;;;;7.10;100.00;100689.09;5033224;28;19921;-74
2022/12/22 11:31:30;;;;;;;;;;;;;;;7.05;100.00;100698.78;5030349;28;19921;-75
2022/12/22 11:34:14;;;;;;;;;;;;;;;6.99;100.00;100696.38;5029307;28;20207;-75
2022/12/22 11:36:48;;;;;;;;;;;;;;;6.96;100.00;100691.25;5033933;28;19913;-75
2022/12/22 11:39:15;;;;;;;;;;;;;;;6.95;100.00;100686.94;5041991;28;20136;-75
2022/12/22 11:41:44;;;;;;;;;;;;;;;6.97;100.00;100687.72;5029601;28;19927;-75
2022/12/22 11:44:15;;;;;;;;;;;;;;;6.96;100.00;100681.69;5033910;28;19956;-75
2022/12/22 11:46:46;;;;;;;;;;;;;;;6.97;100.00;100674.72;5034359;28;19910;-75
2022/12/22 11:49:21;;;;;;;;;;;;;;;6.98;100.00;100661.66;5031628;28;19959;-75
2022/12/22 11:52:02;;;;;;;;;;;;;;;6.99;100.00;100654.72;5030994;28;20262;-75
2022/12/22 11:54:36;;;;;;;;;;;;;;;6.97;100.00;100649.56;5033383;28;19920;-75
2022/12/22 11:57:01;;;;;;;;;;;;;;;6.98;100.00;100655.59;5022752;28;20033;-75
2022/12/22 11:59:38;;;;;;;;;;;;;;;6.98;100.00;100647.78;5027453;28;20196;-75
2022/12/22 12:02:30;;;;;;;;;;;;;;;6.99;100.00;100636.50;5030940;28;20160;-75
2022/12/22 12:05:18;;;;;;;;;;;;;;;7.01;100.00;100647.72;5016814;28;20172;-75
2022/12/22 12:07:52;;;;;;;;;;;;;;;7.00;100.00;100652.03;5028508;28;19932;-75
2022/12/22 12:10:25;;;;;;;;;;;;;;;6.99;100.00;100642.53;5025260;28;19972;-75
2022/12/22 12:12:51;;;;;;;;;;;;;;;7.00;100.00;100641.63;5025724;28;19929;-75
2022/12/22 12:15:19;;;;;;;;;;;;;;;7.01;100.00;100637.31;5029685;28;19917;-75
2022/12/22 12:17:47;;;;;;;;;;;;;;;7.01;100.00;100639.91;5028905;28;20182;-75
2022/12/22 12:20:19;;;;;;;;;;;;;;;7.01;100.00;100627.72;5022043;28;19909;-74
2022/12/22 12:22:56;;;;;;;;;;;;;;;7.03;100.00;100625.94;5026325;28;19928;-75
2022/12/22 12:25:28;;;;;;;;;;;;;;;7.04;100.00;100619.84;5031122;28;20184;-75
2022/12/22 12:27:53;;;;;;;;;;;;;;;7.06;100.00;100627.59;5032201;28;20182;-75
2022/12/22 12:30:19;;;;;;;;;;;;;;;7.04;100.00;100613.75;5029397;28;19925;-75
2022/12/22 12:32:51;;;;;;;;;;;;;;;7.06;100.00;100618.03;5041578;28;20287;-75
2022/12/22 12:35:22;;;;;;;;;;;;;;;7.05;100.00;100610.25;5030457;28;19909;-75
2022/12/22 12:37:50;;;;;;;;;;;;;;;7.05;100.00;100618.91;5030842;28;19996;-75
2022/12/22 12:40:15;;;;;;;;;;;;;;;7.07;100.00;100621.47;5027311;28;19948;-75
2022/12/22 12:42:43;;;;;;;;;;;;;;;7.09;100.00;100627.50;5021447;28;19928;-75
2022/12/22 12:45:27;;;;;;;;;;;;;;;7.08;100.00;100616.22;5027354;28;20122;-75
2022/12/22 12:47:52;;;;;;;;;;;;;;;7.08;100.00;100607.56;5026074;28;20180;-75
2022/12/22 12:50:32;;;;;;;;;;;;;;;7.08;100.00;100616.22;5028989;28;19964;-75
2022/12/22 12:52:57;;;;;;;;;;;;;;;7.10;100.00;100613.59;5025055;28;20112;-75
2022/12/22 12:55:30;;;;;;;;;;;;;;;7.10;100.00;100616.19;5036220;28;19921;-75
2022/12/22 12:57:56;;;;;;;;;;;;;;;7.10;100.00;100605.78;5032116;28;19921;-75
2022/12/22 13:00:30;;;;;;;;;;;;;;;7.10;100.00;100600.56;5030940;28;20243;-75
2022/12/22 13:02:57;;;;;;;;;;;;;;;7.09;100.00;100594.53;5030743;28;20278;-75
2022/12/22 13:05:31;;;;;;;;;;;;;;;7.10;100.00;100593.59;5027839;28;19921;-75
2022/12/22 13:08:04;;;;;;;;;;;;;;;7.11;100.00;100584.91;5031884;28;19953;-75
2022/12/22 13:10:29;;;;;;;;;;;;;;;7.13;100.00;100584.88;5028180;28;19921;-75
2022/12/22 13:12:56;;;;;;;;;;;;;;;7.14;100.00;100575.28;5032002;28;20255;-75
2022/12/22 13:15:25;;;;;;;;;;;;;;;7.14;100.00;100572.69;5031140;28;20227;-75
2022/12/22 13:17:50;;;;;;;;;;;;;;;7.16;100.00;100568.28;5029269;28;20197;-75
2022/12/22 13:20:20;;;;;;;;;;;;;;;7.16;100.00;100576.09;5031049;28;19971;-75
2022/12/22 13:22:50;;;;;;;;;;;;;;;7.18;100.00;100577.72;5035382;28;19921;-75
2022/12/22 13:25:16;;;;;;;;;;;;;;;7.20;100.00;100567.28;5028688;28;20014;-75
2022/12/22 13:27:42;;;;;;;;;;;;;;;7.21;100.00;100569.00;5035165;28;19929;-75
2022/12/22 13:30:14;;;;;;;;;;;;;;;7.21;100.00;100567.22;5036054;28;19948;-75
2022/12/22 13:32:40;;;;;;;;;;;;;;;7.23;100.00;100556.78;5034058;28;19913;-75
2022/12/22 13:35:17;;;;;;;;;;;;;;;7.24;100.00;100556.72;5035042;28;19951;-75
2022/12/22 13:37:46;;;;;;;;;;;;;;;7.25;100.00;100544.53;5034828;28;20003;-75
2022/12/22 13:40:19;;;;;;;;;;;;;;;7.25;100.00;100545.38;5034358;28;19921;-74
2022/12/22 13:42:44;;;;;;;;;;;;;;;7.26;100.00;100541.06;5034449;28;19967;-75
2022/12/22 13:45:17;;;;;;;;;;;;;;;7.27;100.00;100540.97;5032357;28;19988;-75
2022/12/22 13:47:43;;;;;;;;;;;;;;;7.29;100.00;100546.16;5032001;28;19944;-75
2022/12/22 13:50:19;;;;;;;;;;;;;;;7.28;100.00;100534.88;5035169;28;20250;-75
2022/12/22 13:52:44;;;;;;;;;;;;;;;7.30;100.00;100533.06;5035326;28;19932;-75
2022/12/22 13:55:17;;;;;;;;;;;;;;;7.30;100.00;100527.03;5036339;28;19917;-75
2022/12/22 13:57:42;;;;;;;;;;;;;;;7.32;100.00;100526.97;5034571;28;19929;-75
2022/12/22 14:00:17;;;;;;;;;;;;;;;7.31;100.00;100528.72;5033981;28;19985;-75
2022/12/22 14:02:43;;;;;;;;;;;;;;;7.32;100.00;100529.59;5028616;28;19917;-75
2022/12/22 14:05:10;;;;;;;;;;;;;;;7.32;100.00;100527.81;5035757;28;19960;-75
2022/12/22 14:07:35;;;;;;;;;;;;;;;7.34;100.00;100522.56;5035397;28;20235;-75
2022/12/22 14:10:01;;;;;;;;;;;;;;;7.34;100.00;100517.34;5034340;28;20217;-75
2022/12/22 14:12:45;;;;;;;;;;;;;;;7.34;100.00;100506.94;5033459;28;20038;-74
2022/12/22 14:15:16;;;;;;;;;;;;;;;7.35;100.00;100504.28;5046494;28;20202;-75
2022/12/22 14:17:41;;;;;;;;;;;;;;;7.36;100.00;100503.38;5048689;28;19952;-74
2022/12/22 14:20:15;;;;;;;;;;;;;;;7.36;100.00;100495.56;5031452;28;20073;-75
2022/12/22 14:22:56;;;;;;;;;;;;;;;7.38;100.00;100498.13;5045096;28;19909;-74
2022/12/22 14:25:24;;;;;;;;;;;;;;;7.38;100.00;100496.34;5033455;28;19928;-75
2022/12/22 14:27:51;;;;;;;;;;;;;;;7.39;100.00;100498.06;5036782;28;19916;-74
2022/12/22 14:30:22;;;;;;;;;;;;;;;7.40;100.00;100488.47;5038428;28;19921;-75
2022/12/22 14:32:48;;;;;;;;;;;;;;;7.40;100.00;100491.94;5038482;28;20112;-75
2022/12/22 14:35:19;;;;;;;;;;;;;;;7.41;100.00;100490.19;5035291;28;19913;-75
2022/12/22 14:37:48;;;;;;;;;;;;;;;7.41;100.00;100474.56;5037270;28;19935;-75
2022/12/22 14:40:28;;;;;;;;;;;;;;;7.42;100.00;100477.13;5027219;28;19947;-75
2022/12/22 14:42:54;;;;;;;;;;;;;;;7.42;100.00;100477.13;5030852;28;19922;-74
2022/12/22 14:45:19;;;;;;;;;;;;;;;7.43;100.00;100477.97;5028055;28;20040;-75
2022/12/22 14:47:44;;;;;;;;;;;;;;;7.42;100.00;100466.72;5038455;28;19925;-74
2022/12/22 14:50:15;;;;;;;;;;;;;;;7.43;100.00;100467.56;5030418;28;19925;-75
2022/12/22 14:52:45;;;;;;;;;;;;;;;7.43;100.00;100471.00;5034447;28;19921;-74
2022/12/22 14:55:26;;;;;;;;;;;;;;;7.43;100.00;100473.59;5030675;28;19925;-74
2022/12/22 14:57:53;;;;;;;;;;;;;;;7.44;100.00;100477.94;5031817;28;19926;-74
2022/12/22 15:00:22;;;;;;;;;;;;;;;7.44;100.00;100464.03;5034447;28;19921;-75
2022/12/22 15:02:51;;;;;;;;;;;;;;;7.44;100.00;100466.63;5027091;28;19929;-75
2022/12/22 15:05:37;;;;;;;;;;;;;;;7.46;100.00;100459.66;5035641;28;20015;-74
2022/12/22 15:08:23;;;;;;;;;;;;;;;7.46;100.00;100446.63;5037831;28;20175;-74
2022/12/22 15:10:48;;;;;;;;;;;;;;;7.46;100.00;100444.00;5038644;28;20232;-75
2022/12/22 15:13:20;;;;;;;;;;;;;;;7.45;100.00;100435.31;5035851;28;19928;-74
2022/12/22 15:15:45;;;;;;;;;;;;;;;7.46;100.00;100433.59;5032062;28;19957;-74
2022/12/22 15:18:12;;;;;;;;;;;;;;;7.46;100.00;100434.44;5038492;28;20184;-75
2022/12/22 15:20:38;;;;;;;;;;;;;;;7.46;100.00;100424.00;5038646;28;19921;-75
2022/12/22 15:23:08;;;;;;;;;;;;;;;7.47;100.00;100424.84;5037226;28;19921;-75
2022/12/22 15:25:33;;;;;;;;;;;;;;;7.47;100.00;100414.44;5036091;28;19912;-75
2022/12/22 15:27:58;;;;;;;;;;;;;;;7.47;100.00;100415.28;5032222;28;19983;-75
2022/12/22 15:30:24;;;;;;;;;;;;;;;7.48;100.00;100421.34;5032447;28;19916;-75
2022/12/22 15:32:49;;;;;;;;;;;;;;;7.47;100.00;100415.28;5030374;28;19929;-74
2022/12/22 15:35:15;;;;;;;;;;;;;;;7.47;100.00;100410.06;5037077;28;19932;-75
2022/12/22 15:37:41;;;;;;;;;;;;;;;7.48;100.00;100413.53;5031915;28;20170;-74
2022/12/22 15:40:16;;;;;;;;;;;;;;;7.49;100.00;100407.41;5025348;28;19914;-75
2022/12/22 15:42:42;;;;;;;;;;;;;;;7.48;100.00;100395.28;5032706;28;19943;-75
2022/12/22 15:45:07;;;;;;;;;;;;;;;7.48;100.00;100398.75;5024468;28;19925;-75
2022/12/22 15:47:32;;;;;;;;;;;;;;;7.49;100.00;100390.03;5035326;28;20337;-74
2022/12/22 15:49:58;;;;;;;;;;;;;;;7.49;100.00;100386.56;5029348;28;19925;-75
2022/12/22 15:52:23;;;;;;;;;;;;;;;7.49;100.00;100392.66;5035436;28;19944;-75
2022/12/22 15:54:48;;;;;;;;;;;;;;;7.50;100.00;100393.47;5036428;28;20193;-75
2022/12/22 15:57:14;;;;;;;;;;;;;;;7.50;100.00;100386.50;5037165;28;20118;-75
2022/12/22 15:59:39;;;;;;;;;;;;;;;7.50;100.00;100388.28;5035434;28;19909;-75
2022/12/22 16:02:09;;;;;;;;;;;;;;;7.51;100.00;100379.53;5037217;28;20283;-75
2022/12/22 16:04:34;;;;;;;;;;;;;;;7.52;100.00;100377.81;5036986;28;19921;-75
2022/12/22 16:06:59;;;;;;;;;;;;;;;7.51;100.00;100379.53;5036624;28;19944;-74
2022/12/22 16:09:31;;;;;;;;;;;;;;;7.52;100.00;100369.97;5035010;28;19952;-75
2022/12/22 16:11:56;;;;;;;;;;;;;;;7.52;100.00;100369.97;5036202;28;20005;-74
2022/12/22 16:14:22;;;;;;;;;;;;;;;7.53;100.00;100372.53;5036711;28;19921;-75
2022/12/22 16:16:48;;;;;;;;;;;;;;;7.52;100.00;100360.41;5036576;28;19935;-75
2022/12/22 16:19:14;;;;;;;;;;;;;;;7.54;100.00;100353.38;5037186;28;19953;-75
2022/12/22 16:21:40;;;;;;;;;;;;;;;7.54;100.00;100352.53;5036949;28;19917;-75
2022/12/22 16:24:06;;;;;;;;;;;;;;;7.54;100.00;100347.31;5037734;28;20016;-74